Time;durP1;ratioP1;P1;durP2;ratioP2;P2;SDS_P1;SDS_P2;PMS_P1;PMS_P2;Temp;Humidity;BMP_temperature;BMP_pressure;BME280_temperature;BME280_humidity;BME280_pressure;Samples;Min_cycle;Max_cycle;Signal;HPM_P1;HPM_P2
2022/03/17 00:00:54;;;;;;;29.48;20.30;;;10.00;99.90;;;;;;6343889;22;20093;-90
2022/03/17 00:03:20;;;;;;;26.33;18.60;;;10.10;99.90;;;;;;6318911;22;20015;-91
2022/03/17 00:05:47;;;;;;;30.00;20.75;;;10.00;99.90;;;;;;6320935;22;20015;-84
2022/03/17 00:08:16;;;;;;;30.63;20.23;;;10.00;99.90;;;;;;6351447;22;20022;-94
2022/03/17 00:10:42;;;;;;;30.58;20.83;;;10.00;99.90;;;;;;6338368;22;20019;-90
2022/03/17 00:13:08;;;;;;;27.98;20.25;;;10.00;99.90;;;;;;6353457;22;20026;-94
2022/03/17 00:15:34;;;;;;;27.93;19.87;;;10.00;99.90;;;;;;6351690;22;20016;-92
2022/03/17 00:17:59;;;;;;;30.47;20.57;;;9.90;99.90;;;;;;6351661;22;20082;-96
2022/03/17 00:20:25;;;;;;;28.13;20.67;;;10.00;99.90;;;;;;6350933;22;20014;-93
2022/03/17 00:22:51;;;;;;;32.07;20.80;;;10.00;99.90;;;;;;6351788;22;20320;-95
2022/03/17 00:25:19;;;;;;;29.07;20.50;;;10.00;99.90;;;;;;6377965;22;20335;-86
2022/03/17 00:27:45;;;;;;;31.85;21.48;;;10.00;99.90;;;;;;6378016;22;20014;-94
2022/03/17 00:30:11;;;;;;;28.80;19.53;;;10.00;99.90;;;;;;6351219;22;20010;-95
2022/03/17 00:32:38;;;;;;;31.03;20.80;;;10.00;99.90;;;;;;6350991;22;20017;-94
2022/03/17 00:37:49;;;;;;;27.95;20.60;;;10.00;99.90;;;;;;6388252;22;20455;-90
2022/03/17 00:40:15;;;;;;;28.17;20.53;;;10.00;99.90;;;;;;6361242;22;20043;-93
2022/03/17 00:45:16;;;;;;;29.20;20.63;;;9.90;99.90;;;;;;6347028;22;20075;-96
2022/03/17 00:47:41;;;;;;;29.93;20.70;;;9.90;99.90;;;;;;6343902;22;20026;-90
2022/03/17 00:53:01;;;;;;;31.55;20.35;;;9.90;99.90;;;;;;6380478;22;20022;-94
2022/03/17 00:55:35;;;;;;;28.35;20.88;;;9.90;99.90;;;;;;6338947;22;20068;-84
2022/03/17 00:58:01;;;;;;;32.38;21.30;;;9.90;99.90;;;;;;6389282;22;20029;-83
2022/03/17 01:00:28;;;;;;;30.30;20.40;;;9.90;99.90;;;;;;6388676;22;20041;-89
2022/03/17 01:02:56;;;;;;;29.60;21.15;;;9.90;99.90;;;;;;6352524;22;20025;-88
2022/03/17 01:05:22;;;;;;;30.40;21.17;;;9.90;99.90;;;;;;6329830;22;20478;-87
2022/03/17 01:07:50;;;;;;;31.75;20.92;;;9.90;99.90;;;;;;6357796;22;20013;-89
2022/03/17 01:10:17;;;;;;;31.08;20.85;;;9.80;99.90;;;;;;6351920;22;20022;-88
2022/03/17 01:12:46;;;;;;;;;;;9.80;99.90;;;;;;6328667;22;20014;-91
2022/03/17 01:15:13;;;;;;;29.55;20.35;;;9.80;99.90;;;;;;6352875;22;20337;-87
2022/03/17 01:17:39;;;;;;;29.05;20.65;;;9.80;99.90;;;;;;6333271;22;20029;-90
2022/03/17 01:20:06;;;;;;;31.27;21.80;;;9.80;99.90;;;;;;6358149;22;20018;-86
2022/03/17 01:22:33;;;;;;;30.95;21.35;;;9.80;99.90;;;;;;6363397;22;20097;-93
2022/03/17 01:24:59;;;;;;;;;;;9.80;99.90;;;;;;6360325;22;20032;-89
2022/03/17 01:27:25;;;;;;;30.15;21.55;;;9.80;99.90;;;;;;6387508;22;19937;-87
2022/03/17 01:29:52;;;;;;;29.40;20.63;;;9.80;99.90;;;;;;6389832;22;20021;-84
2022/03/17 01:32:20;;;;;;;31.13;21.20;;;9.80;99.90;;;;;;6388977;22;20028;-85
2022/03/17 01:35:02;;;;;;;32.95;20.27;;;9.80;99.90;;;;;;6359686;22;20041;-93
2022/03/17 01:37:50;;;;;;;32.05;21.13;;;9.80;99.90;;;;;;6395705;22;20045;-83
2022/03/17 01:40:19;;;;;;;31.30;21.60;;;9.80;99.90;;;;;;6369603;22;20002;-83
2022/03/17 01:42:45;;;;;;;31.73;20.08;;;9.80;99.90;;;;;;6299756;22;20018;-88
2022/03/17 01:45:11;;;;;;;33.23;21.23;;;9.80;99.90;;;;;;6357370;22;20064;-85
2022/03/17 01:47:38;;;;;;;31.83;21.73;;;9.80;99.90;;;;;;6332875;22;20263;-89
2022/03/17 01:50:11;;;;;;;31.98;21.40;;;9.80;99.90;;;;;;6324903;22;20020;-95
2022/03/17 01:52:38;;;;;;;31.42;21.92;;;9.80;99.90;;;;;;6349417;22;20018;-92
2022/03/17 01:55:05;;;;;;;32.97;21.73;;;9.80;99.90;;;;;;6333309;22;20444;-86
2022/03/17 01:57:31;;;;;;;30.65;21.83;;;9.80;99.90;;;;;;6345488;22;20029;-89
2022/03/17 01:59:58;;;;;;;31.65;22.75;;;9.80;99.90;;;;;;6350747;22;20018;-92
2022/03/17 02:05:03;;;;;;;31.45;21.58;;;9.70;99.90;;;;;;6360372;22;20028;-88
2022/03/17 02:07:29;;;;;;;30.15;21.17;;;9.70;99.90;;;;;;6344064;22;20019;-85
2022/03/17 02:09:55;;;;;;;31.92;21.83;;;9.60;99.90;;;;;;6344187;22;20014;-94
2022/03/17 02:15:08;;;;;;;32.88;22.63;;;9.70;99.90;;;;;;6374390;22;20033;-92
2022/03/17 02:17:43;;;;;;;30.80;22.00;;;9.60;99.90;;;;;;6376090;22;20029;-86
2022/03/17 02:20:13;;;;;;;32.15;21.60;;;9.60;99.90;;;;;;6350945;22;20025;-92
2022/03/17 02:22:43;;;;;;;30.15;20.88;;;9.60;99.90;;;;;;6346035;22;20079;-90
2022/03/17 02:27:53;;;;;;;31.05;22.25;;;9.60;99.90;;;;;;6381927;22;20015;-85
2022/03/17 02:30:22;;;;;;;32.20;22.10;;;9.70;99.90;;;;;;6328467;22;20041;-85
2022/03/17 02:32:48;;;;;;;30.65;21.38;;;9.60;99.90;;;;;;6353585;22;20527;-92
2022/03/17 02:35:20;;;;;;;33.20;21.67;;;9.70;99.90;;;;;;6352796;22;20029;-85
2022/03/17 02:37:48;;;;;;;31.80;21.05;;;9.70;99.90;;;;;;6347911;22;20026;-84
2022/03/17 02:40:14;;;;;;;32.58;22.27;;;9.70;99.90;;;;;;6353344;22;20019;-86
2022/03/17 02:42:40;;;;;;;33.88;23.25;;;9.70;99.90;;;;;;6348858;22;20023;-83
2022/03/17 02:45:12;;;;;;;32.10;22.00;;;9.70;99.90;;;;;;6323059;22;20076;-85
2022/03/17 02:47:40;;;;;;;32.97;23.20;;;9.80;99.90;;;;;;6379366;22;20019;-86
2022/03/17 02:50:07;;;;;;;33.95;22.55;;;9.70;99.90;;;;;;6351279;22;20014;-89
2022/03/17 02:52:33;;;;;;;30.48;22.00;;;9.70;99.90;;;;;;6352072;22;20018;-90
2022/03/17 02:55:00;;;;;;;34.88;23.42;;;9.70;99.90;;;;;;6351370;22;20324;-85
2022/03/17 02:57:25;;;;;;;35.00;24.27;;;9.70;99.90;;;;;;6350630;22;20067;-86
2022/03/17 02:59:54;;;;;;;31.67;22.80;;;9.70;99.90;;;;;;6348309;22;20034;-87
2022/03/17 03:02:22;;;;;;;29.77;21.52;;;9.60;99.90;;;;;;6319411;22;20046;-96
2022/03/17 03:04:48;;;;;;;31.27;22.38;;;9.70;99.90;;;;;;6344951;22;20026;-91
2022/03/17 03:07:14;;;;;;;32.55;22.25;;;9.70;99.90;;;;;;6319854;22;20022;-94
2022/03/17 03:09:40;;;;;;;32.87;22.23;;;9.80;99.90;;;;;;6347337;22;20022;-94
2022/03/17 03:12:08;;;;;;;35.38;22.80;;;9.80;99.90;;;;;;6297624;22;20046;-85
2022/03/17 03:14:34;;;;;;;34.55;22.30;;;9.80;99.90;;;;;;6379699;22;20026;-95
2022/03/17 03:16:59;;;;;;;33.47;22.50;;;9.80;99.90;;;;;;6380504;22;20022;-86
2022/03/17 03:19:26;;;;;;;32.70;21.97;;;9.80;99.90;;;;;;6351372;22;20029;-88
2022/03/17 03:21:51;;;;;;;31.23;22.75;;;9.80;99.90;;;;;;6348696;22;20022;-86
2022/03/17 03:24:17;;;;;;;33.67;22.87;;;9.90;99.90;;;;;;6318258;22;20033;-91
2022/03/17 03:26:44;;;;;;;33.03;22.52;;;9.80;99.90;;;;;;6370973;22;20089;-89
2022/03/17 03:29:25;;;;;;;32.15;21.77;;;9.90;99.90;;;;;;6346261;22;20025;-92
2022/03/17 03:31:53;;;;;;;32.03;21.83;;;9.90;99.90;;;;;;6373239;22;20467;-91
2022/03/17 03:34:19;;;;;;;30.98;22.00;;;9.90;99.90;;;;;;6373750;22;20022;-92
2022/03/17 03:39:30;;;;;;;31.20;23.00;;;9.90;99.90;;;;;;6350934;22;20081;-90
2022/03/17 03:41:56;;;;;;;32.63;22.90;;;9.90;99.90;;;;;;6376862;22;20049;-90
2022/03/17 03:44:22;;;;;;;30.83;22.13;;;9.90;99.90;;;;;;6316271;22;20042;-92
2022/03/17 03:46:47;;;;;;;31.67;22.87;;;9.90;99.90;;;;;;6344238;22;20064;-87
2022/03/17 03:49:13;;;;;;;31.53;22.07;;;9.90;99.90;;;;;;6365870;22;20024;-89
2022/03/17 03:51:39;;;;;;;31.37;23.20;;;9.90;99.90;;;;;;6348229;22;20026;-89
2022/03/17 03:54:15;;;;;;;30.48;22.70;;;9.90;99.90;;;;;;6319645;22;20414;-92
2022/03/17 03:56:50;;;;;;;31.58;22.73;;;9.90;99.90;;;;;;6345290;22;20025;-91
2022/03/17 03:59:26;;;;;;;35.88;24.08;;;9.90;99.90;;;;;;6344637;22;20014;-85
2022/03/17 04:02:01;;;;;;;30.75;22.50;;;9.90;99.90;;;;;;6321733;22;20018;-87
2022/03/17 04:04:28;;;;;;;32.92;22.67;;;9.90;99.90;;;;;;6344896;22;20014;-85
2022/03/17 04:06:58;;;;;;;34.88;24.48;;;10.00;99.90;;;;;;6348882;22;20022;-92
2022/03/17 04:09:26;;;;;;;33.80;24.80;;;9.90;99.90;;;;;;6351068;22;20021;-86
2022/03/17 04:11:52;;;;;;;33.85;25.00;;;9.90;99.90;;;;;;6350123;22;20014;-85
2022/03/17 04:14:20;;;;;;;34.47;24.95;;;9.90;99.90;;;;;;6324367;22;20469;-87
2022/03/17 04:16:46;;;;;;;36.03;25.60;;;10.00;99.90;;;;;;6347915;22;20049;-86
2022/03/17 04:19:12;;;;;;;33.47;25.77;;;10.00;99.90;;;;;;6343922;22;20022;-88
2022/03/17 04:21:39;;;;;;;36.05;25.92;;;10.00;99.90;;;;;;6344948;22;20023;-89
2022/03/17 04:24:05;;;;;;;36.22;25.83;;;10.00;99.90;;;;;;6343585;22;20026;-90
2022/03/17 04:26:31;;;;;;;38.70;28.50;;;9.90;99.90;;;;;;6343842;22;20037;-86
2022/03/17 04:28:57;;;;;;;34.83;27.42;;;9.90;99.90;;;;;;6318051;22;20022;-90
2022/03/17 04:31:23;;;;;;;39.20;29.83;;;9.90;99.90;;;;;;6343979;22;20010;-93
2022/03/17 04:33:50;;;;;;;37.60;29.25;;;9.90;99.90;;;;;;6331006;22;20083;-90
2022/03/17 04:36:16;;;;;;;;;;;9.90;99.90;;;;;;6344265;22;20018;-89
2022/03/17 04:38:42;;;;;;;40.42;29.38;;;9.90;99.90;;;;;;6371727;22;19921;-91
2022/03/17 04:41:09;;;;;;;41.15;31.08;;;9.90;99.90;;;;;;6345072;22;20019;-93
2022/03/17 04:43:36;;;;;;;42.67;30.77;;;9.80;99.90;;;;;;6344538;22;20634;-86
2022/03/17 04:46:02;;;;;;;42.38;31.45;;;9.90;99.90;;;;;;6319019;22;20026;-91
2022/03/17 04:48:28;;;;;;;43.47;31.77;;;9.90;99.90;;;;;;6346881;22;20026;-88
2022/03/17 04:50:54;;;;;;;44.97;33.33;;;9.90;99.90;;;;;;6371755;22;20101;-86
2022/03/17 04:53:35;;;;;;;48.72;36.10;;;9.90;99.90;;;;;;6344875;22;20451;-88
2022/03/17 04:56:09;;;;;;;49.20;36.22;;;9.90;99.90;;;;;;6371500;22;20114;-86
2022/03/17 04:58:37;;;;;;;49.78;36.58;;;9.80;99.90;;;;;;6343534;22;20102;-89
2022/03/17 05:01:04;;;;;;;53.75;36.45;;;9.80;99.90;;;;;;6343511;22;20079;-89
2022/03/17 05:03:31;;;;;;;55.78;38.42;;;9.70;99.90;;;;;;6343280;22;20356;-89
2022/03/17 05:06:11;;;;;;;57.95;38.90;;;9.70;99.90;;;;;;6317444;22;20492;-85
2022/03/17 05:08:37;;;;;;;56.58;39.67;;;9.70;99.90;;;;;;6344292;22;20526;-91
2022/03/17 05:11:04;;;;;;;62.10;41.42;;;9.60;99.90;;;;;;6317795;22;20048;-91
2022/03/17 05:13:30;;;;;;;;;;;9.60;99.90;;;;;;6318141;22;20446;-91
2022/03/17 05:15:56;;;;;;;59.17;39.97;;;9.60;99.90;;;;;;6344878;22;19985;-94
2022/03/17 05:18:21;;;;;;;57.97;40.47;;;9.60;99.90;;;;;;6372794;22;20486;-92
2022/03/17 05:20:47;;;;;;;63.50;41.83;;;9.50;99.90;;;;;;6345734;22;20461;-93
2022/03/17 05:23:41;;;;;;;64.35;42.03;;;9.50;99.90;;;;;;6347980;22;20072;-94
2022/03/17 05:26:29;;;;;;;62.17;41.55;;;9.50;99.90;;;;;;6345339;22;20033;-95
2022/03/17 05:28:55;;;;;;;49.38;34.03;;;9.50;99.90;;;;;;6313781;22;20068;-94
2022/03/17 05:31:20;;;;;;;40.33;26.33;;;9.50;99.90;;;;;;6340112;22;20436;-91
2022/03/17 05:33:46;;;;;;;23.90;16.00;;;9.50;99.90;;;;;;6319498;22;20018;-93
2022/03/17 05:36:30;;;;;;;16.23;12.30;;;9.40;99.90;;;;;;6344566;22;20018;-93
2022/03/17 05:38:57;;;;;;;15.38;11.05;;;9.30;99.90;;;;;;6340094;22;20019;-95
2022/03/17 05:41:22;;;;;;;14.93;10.77;;;9.10;99.90;;;;;;6288671;22;20026;-91
2022/03/17 05:43:48;;;;;;;14.83;10.87;;;9.00;99.90;;;;;;6286507;22;20019;-90
2022/03/17 05:46:14;;;;;;;13.87;10.37;;;8.90;99.90;;;;;;6339540;22;20022;-91
2022/03/17 05:48:41;;;;;;;13.93;10.10;;;8.90;99.90;;;;;;6321563;22;20018;-90
2022/03/17 05:51:07;;;;;;;12.48;9.30;;;8.80;99.90;;;;;;6296851;22;20291;-95
2022/03/17 05:53:32;;;;;;;14.93;10.23;;;8.70;99.90;;;;;;6346726;22;20351;-96
2022/03/17 05:55:59;;;;;;;12.17;9.07;;;8.70;99.90;;;;;;6306746;22;20014;-94
2022/03/17 05:58:25;;;;;;;14.50;9.98;;;8.60;99.90;;;;;;6364555;22;20013;-87
2022/03/17 06:00:50;;;;;;;15.90;10.40;;;8.60;99.90;;;;;;6377915;22;20465;-92
2022/03/17 06:03:17;;;;;;;16.40;10.67;;;8.60;99.90;;;;;;6349816;22;20046;-92
2022/03/17 06:05:47;;;;;;;19.23;12.07;;;8.50;99.90;;;;;;6404532;22;20025;-90
2022/03/17 06:08:12;;;;;;;24.47;14.43;;;8.50;99.90;;;;;;6350131;22;20018;-94
2022/03/17 06:10:39;;;;;;;30.00;15.73;;;8.50;99.90;;;;;;6349081;22;20059;-91
2022/03/17 06:13:47;;;;;;;26.10;14.75;;;8.40;99.90;;;;;;6374659;22;20014;-90
2022/03/17 06:19:27;;;;;;;25.48;13.35;;;8.30;99.90;;;;;;6339589;22;20021;-92
2022/03/17 06:21:58;;;;;;;24.60;13.80;;;8.30;99.90;;;;;;6288637;22;20105;-96
2022/03/17 06:24:25;;;;;;;25.17;11.00;;;8.30;99.90;;;;;;6289351;22;20160;-91
2022/03/17 06:29:26;;;;;;;19.65;9.02;;;8.20;99.90;;;;;;6372664;22;20451;-87
2022/03/17 06:31:51;;;;;;;16.80;7.60;;;8.20;99.90;;;;;;6318431;22;20020;-91
2022/03/17 06:34:18;;;;;;;18.60;6.73;;;8.10;99.90;;;;;;6320141;22;20022;-96
2022/03/17 06:36:44;;;;;;;16.85;6.28;;;8.10;99.90;;;;;;6319387;22;20029;-89
2022/03/17 06:39:09;;;;;;;13.87;5.03;;;8.10;99.90;;;;;;6375247;22;20042;-89
2022/03/17 06:44:10;;;;;;;22.08;5.07;;;8.10;99.90;;;;;;6372652;22;20350;-93
2022/03/17 06:46:44;;;;;;;14.83;4.60;;;8.00;99.90;;;;;;6331308;22;20053;-95
2022/03/17 06:49:13;;;;;;;17.77;5.28;;;8.10;99.90;;;;;;6327103;22;20023;-95
2022/03/17 06:51:42;;;;;;;16.15;5.50;;;8.10;99.90;;;;;;6329476;22;20321;-94
2022/03/17 06:54:13;;;;;;;16.70;5.13;;;8.00;99.90;;;;;;6327066;22;20029;-96
2022/03/17 07:01:49;;;;;;;10.95;2.88;;;8.00;99.90;;;;;;6382695;22;20041;-95
2022/03/17 07:04:19;;;;;;;11.50;3.07;;;8.00;99.90;;;;;;6331119;22;20003;-95
2022/03/17 07:06:46;;;;;;;9.50;2.75;;;8.00;99.90;;;;;;6333525;22;20018;-94
2022/03/17 07:14:44;;;;;;;10.82;2.45;;;8.00;99.90;;;;;;6384617;22;20106;-94
2022/03/17 07:24:56;;;;;;;11.70;2.40;;;7.90;99.90;;;;;;6372495;22;20030;-93
2022/03/17 07:27:23;;;;;;;12.60;1.73;;;7.90;99.90;;;;;;6318691;22;20451;-92
2022/03/17 07:29:50;;;;;;;10.45;2.20;;;7.90;99.90;;;;;;6318929;22;20022;-92
2022/03/17 07:32:42;;;;;;;8.35;1.77;;;8.00;99.90;;;;;;6318956;22;20073;-93
2022/03/17 07:35:26;;;;;;;12.60;2.10;;;8.00;99.90;;;;;;6312752;22;20075;-92
2022/03/17 07:37:52;;;;;;;10.73;1.88;;;8.00;99.90;;;;;;6318796;22;20022;-92
2022/03/17 07:40:19;;;;;;;7.63;1.60;;;8.00;99.90;;;;;;6318887;22;20137;-92
2022/03/17 07:42:45;;;;;;;9.55;1.77;;;8.00;99.90;;;;;;6318844;22;20257;-93
2022/03/17 07:45:31;;;;;;;11.07;1.77;;;8.00;99.90;;;;;;6318631;22;20060;-92
2022/03/17 07:55:57;;;;;;;15.63;1.85;;;7.90;99.90;;;;;;6361924;22;20393;-93
2022/03/17 07:59:03;;;;;;;11.10;1.88;;;8.00;99.90;;;;;;6318881;22;20051;-92
2022/03/17 08:23:27;;;;;;;16.88;2.83;;;8.00;99.90;;;;;;6348739;22;20335;-94
2022/03/17 08:37:30;;;;;;;23.33;3.53;;;7.90;99.90;;;;;;6371590;22;20435;-89
2022/03/17 08:39:56;;;;;;;23.17;3.78;;;7.90;99.90;;;;;;6318500;22;20026;-90
2022/03/17 08:42:33;;;;;;;19.23;2.67;;;8.00;99.90;;;;;;6318147;22;20019;-91
2022/03/17 08:49:18;;;;;;;;;;;8.00;99.90;;;;;;6318280;22;20025;-91
2022/03/17 08:50:58;;;;;;;;;;;;;;;;;;;;;
2022/03/17 08:54:14;;;;;;;17.92;2.20;;;8.00;99.90;;;;;;6401204;22;20033;-93
2022/03/17 08:56:43;;;;;;;14.07;1.88;;;8.00;99.90;;;;;;6348200;22;20386;-91
2022/03/17 09:07:33;;;;;;;11.52;1.88;;;7.80;99.90;;;;;;6401152;22;20014;-92
2022/03/17 09:09:58;;;;;;;10.60;1.53;;;7.80;99.90;;;;;;6349262;22;20022;-90
2022/03/17 09:12:30;;;;;;;7.50;1.43;;;7.80;99.90;;;;;;6349005;22;20014;-92
2022/03/17 09:14:56;;;;;;;11.48;1.65;;;7.80;99.90;;;;;;6349325;22;20014;-91
2022/03/17 09:17:21;;;;;;;12.47;1.87;;;7.80;99.90;;;;;;6347817;22;20106;-91
2022/03/17 09:19:47;;;;;;;12.77;2.53;;;7.90;99.90;;;;;;6349437;22;20363;-93
2022/03/17 09:22:13;;;;;;;9.87;1.57;;;8.00;99.90;;;;;;6349200;22;20455;-92
2022/03/17 09:24:38;;;;;;;11.17;2.00;;;8.00;99.90;;;;;;6349177;22;20018;-91
2022/03/17 09:27:16;;;;;;;13.07;1.83;;;8.10;99.90;;;;;;6349350;22;20018;-91
2022/03/17 09:30:04;;;;;;;;;;;;;;;;;;;;;
2022/03/17 09:35:07;;;;;;;16.73;2.60;;;8.00;99.90;;;;;;6339334;22;19914;-89
2022/03/17 09:37:35;;;;;;;15.35;2.10;;;8.00;99.90;;;;;;6286423;22;20097;-91
2022/03/17 09:40:03;;;;;;;14.25;1.83;;;7.90;99.90;;;;;;6286023;22;20019;-90
2022/03/17 09:42:29;;;;;;;16.08;2.17;;;8.00;99.90;;;;;;6286381;22;20026;-92
2022/03/17 09:45:29;;;;;;;;;;;;;;;;;;;;;
2022/03/17 09:48:17;;;;;;;12.10;2.00;;;8.10;99.90;;;;;;6339530;22;20105;-90
2022/03/17 09:50:59;;;;;;;15.73;2.08;;;8.20;99.90;;;;;;6288262;22;20087;-90
2022/03/17 09:53:26;;;;;;;11.23;1.90;;;8.20;99.90;;;;;;6286283;22;20456;-91
2022/03/17 09:55:52;;;;;;;13.07;1.90;;;8.30;99.90;;;;;;6286675;22;20018;-89
2022/03/17 09:58:18;;;;;;;14.40;2.00;;;8.30;99.90;;;;;;6286770;22;20131;-91
2022/03/17 10:00:48;;;;;;;13.25;1.90;;;8.40;99.90;;;;;;6286504;22;20018;-94
2022/03/17 10:03:29;;;;;;;13.88;2.15;;;8.30;99.90;;;;;;6286601;22;20471;-91
2022/03/17 10:06:02;;;;;;;11.95;1.63;;;8.40;99.90;;;;;;6286467;22;20030;-91
2022/03/17 10:08:33;;;;;;;11.63;1.63;;;8.50;99.90;;;;;;6286379;22;20015;-92
2022/03/17 10:11:06;;;;;;;16.33;2.83;;;8.70;99.90;;;;;;6286126;22;20023;-91
2022/03/17 10:14:33;;;;;;;15.85;2.00;;;8.80;99.90;;;;;;6286800;22;20026;-92
2022/03/17 10:16:59;;;;;;;16.23;2.17;;;8.90;99.90;;;;;;6218471;23;20032;-91
2022/03/17 10:19:34;;;;;;;15.07;2.27;;;8.90;99.90;;;;;;6193743;23;20051;-91
2022/03/17 10:22:44;;;;;;;14.05;2.08;;;8.90;99.90;;;;;;6194149;23;20016;-93
2022/03/17 10:25:24;;;;;;;14.80;1.92;;;9.00;99.90;;;;;;6267326;22;20015;-91
2022/03/17 10:27:58;;;;;;;15.60;2.38;;;9.00;99.90;;;;;;6286306;22;20010;-91
2022/03/17 10:30:42;;;;;;;10.65;1.77;;;9.00;99.90;;;;;;6285906;22;20452;-92
2022/03/17 10:33:22;;;;;;;13.88;1.80;;;9.00;99.90;;;;;;6311630;22;20023;-90
2022/03/17 10:35:49;;;;;;;19.42;2.67;;;9.00;99.90;;;;;;6280714;22;20026;-90
2022/03/17 10:38:17;;;;;;;13.30;2.42;;;9.00;99.90;;;;;;6280929;22;20053;-91
2022/03/17 10:40:45;;;;;;;13.20;2.33;;;9.10;99.90;;;;;;6280803;22;20019;-92
2022/03/17 10:43:19;;;;;;;13.60;2.58;;;9.10;99.90;;;;;;6273163;22;20023;-91
2022/03/17 10:45:46;;;;;;;14.23;1.88;;;9.10;99.90;;;;;;6280736;22;20052;-89
2022/03/17 10:48:12;;;;;;;12.98;1.73;;;9.30;99.90;;;;;;6280403;22;20031;-92
2022/03/17 10:50:40;;;;;;;15.38;1.90;;;9.40;99.90;;;;;;6280673;22;20015;-92
2022/03/17 10:53:06;;;;;;;11.57;2.03;;;9.40;99.90;;;;;;6280407;22;20019;-90
2022/03/17 10:55:34;;;;;;;13.00;2.22;;;9.30;99.90;;;;;;6280740;22;20349;-91
2022/03/17 10:58:19;;;;;;;17.30;2.42;;;9.30;99.90;;;;;;6280664;22;20015;-92
2022/03/17 11:00:56;;;;;;;16.05;2.13;;;9.30;99.90;;;;;;6280498;22;20015;-92
2022/03/17 11:03:22;;;;;;;;;;;9.40;99.90;;;;;;6281432;22;20019;-92
2022/03/17 11:05:51;;;;;;;12.18;2.42;;;9.40;99.90;;;;;;6280385;22;19985;-91
2022/03/17 11:08:20;;;;;;;11.50;1.77;;;9.40;99.90;;;;;;6280517;22;20015;-92
2022/03/17 11:10:47;;;;;;;12.82;1.90;;;9.60;99.90;;;;;;6280935;22;20444;-90
2022/03/17 11:13:12;;;;;;;14.70;1.80;;;9.70;99.90;;;;;;6280377;22;20525;-92
2022/03/17 11:15:48;;;;;;;10.07;2.17;;;9.80;99.90;;;;;;6280567;22;20019;-92
2022/03/17 11:18:18;;;;;;;13.02;2.10;;;9.90;99.90;;;;;;6280361;22;20037;-92
2022/03/17 11:20:44;;;;;;;12.50;2.80;;;9.90;99.90;;;;;;6280337;22;20027;-93
2022/03/17 11:23:35;;;;;;;15.95;2.90;;;10.00;99.90;;;;;;6280492;22;20019;-91
2022/03/17 11:26:01;;;;;;;14.80;2.45;;;10.20;99.90;;;;;;6280767;22;20027;-91
2022/03/17 11:28:39;;;;;;;11.67;2.03;;;10.40;99.90;;;;;;6281284;22;20019;-91
2022/03/17 11:31:08;;;;;;;11.23;2.10;;;10.60;99.90;;;;;;6281854;22;20022;-90
2022/03/17 11:33:44;;;;;;;13.48;2.03;;;10.80;99.90;;;;;;6282288;22;20094;-91
2022/03/17 11:36:10;;;;;;;15.45;2.15;;;11.00;99.90;;;;;;6282288;22;20118;-90
2022/03/17 11:46:45;;;;;;;10.88;1.85;;;10.90;99.90;;;;;;6346587;22;20028;-94
2022/03/17 11:49:30;;;;;;;9.60;2.03;;;10.90;99.90;;;;;;6319134;22;20014;-94
2022/03/17 11:52:04;;;;;;;14.95;2.03;;;10.90;99.90;;;;;;6318822;22;20018;-90
2022/03/17 11:54:31;;;;;;;12.10;2.38;;;10.90;99.90;;;;;;6318079;22;20054;-90
2022/03/17 11:56:59;;;;;;;14.38;2.78;;;10.90;99.90;;;;;;6318133;22;20439;-90
2022/03/17 11:59:56;;;;;;;11.60;2.03;;;11.00;99.90;;;;;;6317966;22;20325;-90
2022/03/17 12:02:29;;;;;;;11.27;1.80;;;11.00;99.90;;;;;;6319081;22;20014;-88
2022/03/17 12:04:55;;;;;;;11.45;2.15;;;11.00;99.90;;;;;;6343975;22;20022;-90
2022/03/17 12:07:21;;;;;;;13.23;2.00;;;11.00;99.90;;;;;;6317938;22;20320;-88
2022/03/17 12:09:47;;;;;;;13.77;2.40;;;11.10;99.90;;;;;;6318581;22;20018;-88
2022/03/17 12:12:23;;;;;;;9.70;1.65;;;11.10;99.90;;;;;;6344054;22;20016;-89
2022/03/17 12:14:55;;;;;;;12.32;1.70;;;11.20;99.90;;;;;;6318900;22;20018;-96
2022/03/17 12:17:24;;;;;;;10.57;1.67;;;11.30;99.90;;;;;;6320102;22;20015;-91
2022/03/17 12:20:04;;;;;;;13.15;2.42;;;11.30;99.90;;;;;;6319180;22;20081;-90
2022/03/17 12:22:50;;;;;;;8.13;1.85;;;11.30;99.90;;;;;;6321558;22;20119;-89
2022/03/17 12:25:23;;;;;;;12.95;1.88;;;11.20;99.90;;;;;;6319399;22;20011;-92
2022/03/17 12:27:52;;;;;;;9.93;1.52;;;11.20;99.90;;;;;;6329619;22;20026;-93
2022/03/17 12:30:21;;;;;;;13.88;1.85;;;11.20;99.90;;;;;;6310986;22;20033;-92
2022/03/17 12:33:06;;;;;;;13.45;1.70;;;11.30;99.90;;;;;;6357006;22;20018;-95
2022/03/17 12:35:38;;;;;;;13.93;2.28;;;11.30;99.90;;;;;;6323432;22;20022;-96
2022/03/17 12:38:09;;;;;;;11.68;1.75;;;11.40;99.90;;;;;;6330682;22;20018;-96
2022/03/17 12:40:53;;;;;;;11.40;1.45;;;11.40;99.90;;;;;;6354383;22;20413;-89
2022/03/17 12:43:25;;;;;;;10.18;1.90;;;11.40;99.60;;;;;;6353232;22;20041;-93
2022/03/17 12:45:52;;;;;;;11.52;2.00;;;11.40;99.90;;;;;;6355162;22;20023;-94
2022/03/17 12:48:20;;;;;;;10.48;1.67;;;11.30;99.00;;;;;;6321403;22;20015;-92
2022/03/17 12:50:49;;;;;;;8.43;1.50;;;11.30;99.90;;;;;;6329860;22;20046;-90
2022/03/17 12:53:15;;;;;;;12.48;1.50;;;11.30;99.90;;;;;;6350324;22;20014;-89
2022/03/17 12:55:41;;;;;;;16.05;1.75;;;11.30;99.10;;;;;;6344613;22;20056;-96
2022/03/17 12:58:07;;;;;;;15.90;2.47;;;11.30;99.30;;;;;;6329275;22;20019;-94
2022/03/17 13:00:39;;;;;;;10.97;1.60;;;11.30;99.40;;;;;;6329455;22;20023;-95
2022/03/17 13:03:05;;;;;;;12.75;1.98;;;11.30;98.80;;;;;;6346241;22;20638;-94
2022/03/17 13:08:16;;;;;;;9.57;1.58;;;11.30;99.10;;;;;;6353727;22;20026;-89
2022/03/17 13:16:14;;;;;;;14.07;2.20;;;11.40;98.20;;;;;;6345563;22;20022;-94
2022/03/17 13:18:59;;;;;;;10.88;1.70;;;11.30;98.00;;;;;;6324238;22;20015;-91
2022/03/17 13:21:25;;;;;;;10.23;1.83;;;11.30;97.80;;;;;;6323588;22;20027;-92
2022/03/17 13:23:51;;;;;;;12.85;1.85;;;11.20;97.80;;;;;;6345027;22;20071;-94
2022/03/17 13:26:25;;;;;;;;;;;11.20;97.60;;;;;;6319915;22;20104;-96
2022/03/17 13:29:02;;;;;;;11.60;2.65;;;11.20;97.40;;;;;;6350563;22;19911;-92
2022/03/17 13:34:04;;;;;;;9.45;1.55;;;11.20;97.60;;;;;;6381210;22;20033;-90
2022/03/17 13:36:48;;;;;;;;;;;11.30;97.60;;;;;;6375714;22;20018;-90
2022/03/17 13:39:14;;;;;;;12.27;2.58;;;11.30;97.20;;;;;;6349640;22;19924;-93
2022/03/17 13:41:54;;;;;;;11.90;1.90;;;11.40;97.70;;;;;;6349122;22;20045;-93
2022/03/17 13:44:20;;;;;;;10.40;1.80;;;11.40;97.90;;;;;;6349113;22;20014;-93
2022/03/17 13:46:46;;;;;;;8.67;1.13;;;11.40;96.70;;;;;;6375052;22;20009;-91
2022/03/17 13:49:15;;;;;;;14.73;1.77;;;11.30;96.00;;;;;;6349584;22;20511;-96
2022/03/17 13:51:41;;;;;;;12.13;1.63;;;11.30;96.00;;;;;;6349359;22;20009;-94
2022/03/17 13:54:07;;;;;;;10.13;1.93;;;11.40;95.60;;;;;;6348999;22;20458;-96
2022/03/17 13:56:40;;;;;;;9.15;1.60;;;11.40;95.90;;;;;;6348382;22;20060;-92
2022/03/17 14:06:54;;;;;;;11.25;1.55;;;11.30;94.10;;;;;;6308010;22;20026;-92
2022/03/17 14:09:20;;;;;;;10.32;1.30;;;11.20;94.50;;;;;;6255765;22;20030;-91
2022/03/17 14:15:09;;;;;;;8.45;1.70;;;11.30;94.10;;;;;;6307906;22;20062;-94
2022/03/17 14:17:37;;;;;;;7.68;1.52;;;11.20;94.20;;;;;;6281360;22;20026;-92
2022/03/17 14:20:03;;;;;;;6.20;1.08;;;11.20;94.30;;;;;;6281290;22;20479;-94
2022/03/17 14:25:13;;;;;;;13.20;1.80;;;11.10;93.80;;;;;;6306588;22;20025;-89
2022/03/17 14:27:39;;;;;;;8.63;1.58;;;11.10;93.90;;;;;;6280952;22;20023;-94
2022/03/17 14:30:05;;;;;;;9.80;1.23;;;11.00;93.70;;;;;;6280973;22;20023;-96
2022/03/17 14:32:32;;;;;;;8.13;1.42;;;11.00;93.80;;;;;;6281285;22;20023;-94
2022/03/17 14:34:58;;;;;;;8.40;1.30;;;11.00;93.70;;;;;;6281107;22;20019;-93
2022/03/17 14:37:24;;;;;;;5.57;0.93;;;11.00;93.90;;;;;;6281215;22;20019;-93
2022/03/17 14:40:26;;;;;;;8.55;1.35;;;11.00;93.80;;;;;;6281013;22;20019;-93
2022/03/17 14:42:54;;;;;;;11.80;1.60;;;11.00;93.50;;;;;;6278550;22;20019;-93
2022/03/17 14:45:20;;;;;;;8.20;1.40;;;11.00;93.40;;;;;;6280873;22;20043;-93
2022/03/17 14:47:46;;;;;;;9.85;1.42;;;10.90;92.70;;;;;;6281414;22;20016;-93
2022/03/17 14:50:12;;;;;;;8.50;1.00;;;10.80;92.50;;;;;;6281060;22;20027;-95
2022/03/17 14:52:48;;;;;;;8.90;1.50;;;10.90;93.10;;;;;;6280863;22;20015;-94
2022/03/17 14:55:20;;;;;;;8.43;1.60;;;10.90;93.50;;;;;;6282169;22;20019;-92
2022/03/17 14:57:52;;;;;;;8.55;1.10;;;10.90;93.00;;;;;;6281289;22;20052;-91
2022/03/17 15:00:19;;;;;;;8.80;1.30;;;10.90;93.30;;;;;;6230204;22;20334;-93
2022/03/17 15:02:49;;;;;;;11.52;1.20;;;10.90;93.60;;;;;;6281016;22;20460;-92
2022/03/17 15:05:14;;;;;;;7.30;1.05;;;10.90;93.80;;;;;;6257034;22;20478;-94
2022/03/17 15:07:43;;;;;;;8.83;1.20;;;10.90;93.40;;;;;;6306283;22;20058;-90
2022/03/17 15:10:09;;;;;;;11.95;1.30;;;10.80;93.40;;;;;;6282552;22;20042;-90
2022/03/17 15:20:56;;;;;;;9.45;1.33;;;10.70;93.20;;;;;;6372781;22;20041;-88
2022/03/17 15:23:23;;;;;;;8.82;1.20;;;10.70;93.10;;;;;;6318933;22;20449;-91